createdAt,value
2023-07-20T00:00:36.640Z,2.60
2023-07-20T00:03:18.151Z,3.30
2023-07-20T00:05:45.744Z,2.70
2023-07-20T00:08:12.967Z,2.97
2023-07-20T00:10:41.632Z,2.72
2023-07-20T00:13:08.354Z,2.85
2023-07-20T00:15:35.124Z,2.88
2023-07-20T00:18:02.282Z,2.80
2023-07-20T00:20:28.984Z,3.00
2023-07-20T00:22:56.352Z,3.40
2023-07-20T00:25:23.121Z,3.72
2023-07-20T00:27:49.908Z,3.40
2023-07-20T00:30:16.664Z,2.47
2023-07-20T00:32:43.760Z,2.65
2023-07-20T00:35:11.151Z,3.30
2023-07-20T00:37:38.384Z,2.75
2023-07-20T00:40:05.806Z,2.60
2023-07-20T00:42:32.904Z,2.95
2023-07-20T00:44:59.852Z,2.97
2023-07-20T00:47:27.223Z,2.35
2023-07-20T00:49:54.258Z,2.38
2023-07-20T00:52:23.055Z,3.13
2023-07-20T00:54:50.702Z,2.70
2023-07-20T00:57:18.912Z,2.95
2023-07-20T00:59:46.140Z,2.80
2023-07-20T01:02:12.863Z,2.35
2023-07-20T01:04:39.626Z,2.45
2023-07-20T01:07:15.748Z,2.67
2023-07-20T01:09:49.928Z,2.80
2023-07-20T01:12:22.131Z,2.85
2023-07-20T01:14:48.788Z,2.38
2023-07-20T01:17:15.493Z,2.55
2023-07-20T01:19:42.219Z,2.65
2023-07-20T01:22:27.587Z,2.60
2023-07-20T01:25:12.490Z,2.63
2023-07-20T01:27:39.373Z,2.55
2023-07-20T01:30:32.029Z,2.80
2023-07-20T01:32:59.545Z,2.75
2023-07-20T01:35:32.269Z,2.90
2023-07-20T01:37:59.754Z,2.65
2023-07-20T01:40:26.745Z,2.60
2023-07-20T01:42:54.690Z,2.72
2023-07-20T01:45:21.429Z,2.40
2023-07-20T01:47:48.132Z,2.65
2023-07-20T01:50:15.026Z,2.83
2023-07-20T01:52:41.792Z,2.30
2023-07-20T01:55:08.684Z,2.22
2023-07-20T01:57:35.419Z,2.78
2023-07-20T02:00:02.313Z,2.80
2023-07-20T02:02:29.760Z,2.47
2023-07-20T02:04:56.678Z,2.50
2023-07-20T02:07:23.521Z,2.45
2023-07-20T02:09:50.240Z,2.70
2023-07-20T02:12:17.016Z,2.13
2023-07-20T02:14:43.757Z,2.88
2023-07-20T02:17:12.313Z,2.70
2023-07-20T02:19:39.777Z,2.67
2023-07-20T02:22:06.992Z,3.08
2023-07-20T02:24:34.468Z,2.83
2023-07-20T02:27:01.150Z,3.03
2023-07-20T02:29:27.859Z,2.88
2023-07-20T02:31:54.522Z,2.75
2023-07-20T02:34:21.245Z,2.67
2023-07-20T02:36:49.473Z,2.55
2023-07-20T02:39:16.274Z,2.72
2023-07-20T02:41:43.040Z,2.60
2023-07-20T02:44:09.741Z,2.83
2023-07-20T02:46:36.641Z,2.58
2023-07-20T02:49:03.438Z,2.30
2023-07-20T02:51:30.228Z,2.38
2023-07-20T02:53:56.884Z,2.50
2023-07-20T02:56:24.514Z,2.70
2023-07-20T02:58:51.312Z,2.75
2023-07-20T03:01:18.076Z,2.65
2023-07-20T03:03:48.275Z,2.97
2023-07-20T03:06:15.972Z,3.40
2023-07-20T03:08:48.501Z,3.08
2023-07-20T03:11:16.352Z,2.63
2023-07-20T03:13:44.107Z,3.25
2023-07-20T03:16:12.675Z,3.33
2023-07-20T03:18:40.047Z,3.40
2023-07-20T03:21:07.627Z,3.30
2023-07-20T03:23:34.407Z,4.30
2023-07-20T03:26:01.617Z,3.28
2023-07-20T03:28:28.315Z,3.17
2023-07-20T03:30:56.043Z,3.72
2023-07-20T03:33:30.180Z,3.90
2023-07-20T03:35:57.216Z,3.17
2023-07-20T03:38:24.655Z,3.72
2023-07-20T03:40:51.362Z,4.43
2023-07-20T03:43:18.245Z,3.72
2023-07-20T03:45:46.763Z,3.80
2023-07-20T03:48:13.549Z,3.90
2023-07-20T03:50:40.313Z,3.30
2023-07-20T03:53:08.294Z,3.95
2023-07-20T03:55:35.162Z,3.90
2023-07-20T03:58:01.916Z,4.03
2023-07-20T04:00:28.722Z,3.53
2023-07-20T04:02:55.555Z,3.80
2023-07-20T04:05:22.371Z,5.03
2023-07-20T04:07:49.031Z,4.18
2023-07-20T04:10:15.774Z,3.90
2023-07-20T04:12:42.490Z,4.65
2023-07-20T04:15:09.648Z,3.90
2023-07-20T04:17:36.412Z,4.50
2023-07-20T04:20:03.954Z,4.93
2023-07-20T04:22:30.753Z,4.72
2023-07-20T04:24:57.607Z,5.05
2023-07-20T04:27:24.313Z,5.35
2023-07-20T04:29:51.002Z,4.80
2023-07-20T04:32:17.654Z,4.90
2023-07-20T04:34:44.413Z,5.13
2023-07-20T04:37:11.111Z,4.80
2023-07-20T04:39:37.895Z,4.70
2023-07-20T04:42:04.753Z,5.43
2023-07-20T04:44:31.432Z,5.18
2023-07-20T04:46:58.250Z,4.97
2023-07-20T04:49:24.987Z,5.10
2023-07-20T04:51:52.419Z,4.57
2023-07-20T04:54:20.240Z,5.07
2023-07-20T04:56:48.550Z,5.72
2023-07-20T04:59:17.268Z,5.60
2023-07-20T05:01:43.952Z,5.10
2023-07-20T05:04:11.018Z,6.47
2023-07-20T05:06:37.872Z,5.15
2023-07-20T05:09:04.554Z,5.00
2023-07-20T05:11:31.236Z,5.45
2023-07-20T05:13:57.868Z,5.38
2023-07-20T05:16:24.816Z,5.35
2023-07-20T05:18:51.824Z,5.45
2023-07-20T05:21:18.508Z,5.50
2023-07-20T05:23:46.001Z,5.50
2023-07-20T05:26:12.568Z,5.05
2023-07-20T05:28:39.255Z,4.90
2023-07-20T05:31:07.742Z,3.97
2023-07-20T05:33:34.392Z,4.88
2023-07-20T05:36:01.232Z,3.97
2023-07-20T05:38:27.957Z,4.07
2023-07-20T05:41:01.090Z,3.97
2023-07-20T05:43:27.924Z,5.28
2023-07-20T05:45:54.787Z,4.00
2023-07-20T05:48:21.541Z,3.72
2023-07-20T05:50:48.225Z,3.60
2023-07-20T06:20:09.966Z,3.28
2023-07-20T06:22:36.750Z,4.05
2023-07-20T06:25:03.548Z,3.65
2023-07-20T06:27:32.135Z,4.68
2023-07-20T06:52:01.114Z,3.47
2023-07-20T06:54:27.881Z,3.42
2023-07-20T06:59:25.471Z,3.22
2023-07-20T07:01:52.446Z,3.10
2023-07-20T07:04:19.165Z,3.10
2023-07-20T07:06:45.912Z,3.35
2023-07-20T07:09:12.692Z,3.40
2023-07-20T07:11:39.357Z,3.95
2023-07-20T07:14:06.134Z,3.47
2023-07-20T07:16:33.329Z,3.30
2023-07-20T07:19:02.560Z,3.45
2023-07-20T07:21:32.522Z,3.33
2023-07-20T07:24:01.285Z,3.25
2023-07-20T07:26:28.063Z,3.70
2023-07-20T07:28:54.858Z,3.55
2023-07-20T07:31:22.115Z,3.08
2023-07-20T07:33:48.992Z,3.15
2023-07-20T07:36:15.929Z,3.40
2023-07-20T07:41:12.454Z,3.15
2023-07-20T07:43:40.070Z,3.40
2023-07-20T07:46:06.747Z,3.00
2023-07-20T07:48:33.525Z,3.33
2023-07-20T07:51:00.368Z,2.85
2023-07-20T07:53:27.662Z,3.15
2023-07-20T07:55:54.421Z,3.00
2023-07-20T07:58:21.624Z,2.95
2023-07-20T08:00:49.312Z,3.00
2023-07-20T08:03:17.461Z,3.30
2023-07-20T08:05:44.326Z,2.92
2023-07-20T08:08:11.102Z,3.20
2023-07-20T08:10:37.741Z,3.40
2023-07-20T08:13:04.535Z,3.15
2023-07-20T08:15:31.262Z,4.15
2023-07-20T08:17:58.449Z,3.47
2023-07-20T08:20:28.124Z,3.30
2023-07-20T08:22:57.510Z,3.42
2023-07-20T08:25:24.320Z,2.88
2023-07-20T08:27:51.045Z,2.80
2023-07-20T08:30:18.557Z,3.10
2023-07-20T08:32:45.280Z,3.20
2023-07-20T08:35:12.203Z,3.13
2023-07-20T08:37:38.949Z,3.13
2023-07-20T08:40:05.805Z,2.75
2023-07-20T08:42:32.591Z,3.17
2023-07-20T08:44:59.514Z,2.88
2023-07-20T08:47:27.029Z,2.60
2023-07-20T08:49:55.049Z,2.75
2023-07-20T08:52:22.459Z,3.20
2023-07-20T08:54:49.798Z,3.13
2023-07-20T08:57:16.790Z,3.22
2023-07-20T08:59:44.388Z,2.90
2023-07-20T09:19:25.658Z,2.60
2023-07-20T09:21:53.300Z,2.78
2023-07-20T09:24:20.554Z,3.33
2023-07-20T09:26:52.138Z,2.65
2023-07-20T09:29:19.532Z,2.90
2023-07-20T09:32:01.702Z,2.83
2023-07-20T09:37:00.124Z,3.00
2023-07-20T09:39:30.121Z,2.97
2023-07-20T09:47:00.369Z,2.88
2023-07-20T09:51:58.793Z,2.90
2023-07-20T09:54:25.584Z,3.10
2023-07-20T09:56:54.025Z,2.92
2023-07-20T09:59:20.895Z,3.17
2023-07-20T10:01:47.676Z,3.22
2023-07-20T10:04:15.829Z,3.28
2023-07-20T10:06:43.943Z,2.85
2023-07-20T10:16:35.818Z,2.70
2023-07-20T10:21:43.973Z,2.85
2023-07-20T10:24:12.960Z,2.70
2023-07-20T10:26:41.329Z,2.88
2023-07-20T10:29:09.414Z,3.03
2023-07-20T10:31:36.649Z,3.03
2023-07-20T10:34:03.549Z,2.95
2023-07-20T10:36:32.215Z,2.95
2023-07-20T10:38:59.234Z,3.20
2023-07-20T10:41:36.107Z,3.00
2023-07-20T10:44:09.499Z,3.30
2023-07-20T10:46:46.888Z,2.60
2023-07-20T10:49:16.373Z,3.65
2023-07-20T10:51:44.336Z,2.90
2023-07-20T10:54:30.982Z,3.03
2023-07-20T10:56:58.549Z,2.85
2023-07-20T10:59:25.176Z,2.75
2023-07-20T11:01:56.658Z,2.58
2023-07-20T11:04:41.567Z,3.05
2023-07-20T11:07:08.593Z,2.88
2023-07-20T11:09:36.292Z,3.03
2023-07-20T11:12:14.746Z,2.67
2023-07-20T11:14:42.886Z,2.70
2023-07-20T11:17:13.791Z,3.10
2023-07-20T11:22:11.058Z,2.65
2023-07-20T11:24:41.626Z,2.53
2023-07-20T11:29:35.790Z,3.03
2023-07-20T11:32:05.380Z,2.47
2023-07-20T11:34:33.378Z,3.10
2023-07-20T11:39:30.234Z,2.63
2023-07-20T11:41:57.586Z,2.83
2023-07-20T11:44:28.110Z,2.70
2023-07-20T11:47:02.943Z,2.47
2023-07-20T11:49:30.370Z,2.83
2023-07-20T11:51:57.929Z,2.65
2023-07-20T11:54:25.840Z,3.00
2023-07-20T11:56:57.062Z,2.38
2023-07-20T11:59:23.875Z,1.92
2023-07-20T12:01:50.808Z,2.22
2023-07-20T12:04:17.785Z,2.67
2023-07-20T12:06:46.075Z,2.22
2023-07-20T12:09:15.222Z,2.35
2023-07-20T12:11:44.009Z,2.60
2023-07-20T12:14:17.276Z,2.30
2023-07-20T12:16:45.383Z,2.40
2023-07-20T12:19:14.279Z,3.20
2023-07-20T12:21:42.436Z,2.53
2023-07-20T12:24:10.623Z,2.70
2023-07-20T12:26:37.431Z,2.03
2023-07-20T12:29:07.275Z,2.33
2023-07-20T12:31:36.736Z,2.40
2023-07-20T12:34:03.577Z,2.22
2023-07-20T12:36:30.317Z,2.35
2023-07-20T12:38:56.977Z,2.28
2023-07-20T12:41:23.658Z,2.40
2023-07-20T13:08:29.113Z,2.13
2023-07-20T13:10:55.844Z,2.08
2023-07-20T13:13:22.548Z,1.70
2023-07-20T13:15:49.353Z,1.70
2023-07-20T13:18:16.070Z,1.77
2023-07-20T13:20:42.807Z,2.20
2023-07-20T13:23:09.445Z,1.73
2023-07-20T13:25:36.098Z,1.90
2023-07-20T13:28:02.809Z,1.45
2023-07-20T13:30:29.572Z,1.83
2023-07-20T13:32:56.334Z,1.83
2023-07-20T13:35:23.183Z,1.83
2023-07-20T13:37:51.016Z,1.67
2023-07-20T13:40:19.826Z,1.42
2023-07-20T13:42:46.791Z,1.73
2023-07-20T13:45:13.991Z,1.83
2023-07-20T13:47:43.129Z,2.25
2023-07-20T13:50:25.956Z,1.48
2023-07-20T13:53:51.968Z,1.67
2023-07-20T13:58:13.966Z,1.70
2023-07-20T14:00:40.991Z,2.10
2023-07-20T14:08:07.780Z,1.55
2023-07-20T14:12:07.870Z,1.73
2023-07-20T14:13:26.134Z,1.77
2023-07-20T14:15:58.109Z,2.08
2023-07-20T14:18:24.950Z,2.13
2023-07-20T14:20:51.797Z,2.10
2023-07-20T14:23:18.818Z,1.58
2023-07-20T14:25:45.859Z,1.80
2023-07-20T14:28:13.395Z,1.70
2023-07-20T14:30:40.229Z,1.70
2023-07-20T14:33:07.023Z,1.73
2023-07-20T14:35:35.342Z,1.95
2023-07-20T14:38:02.470Z,1.90
2023-07-20T14:40:29.522Z,1.67
2023-07-20T14:42:59.606Z,1.85
2023-07-20T14:45:26.288Z,1.80
2023-07-20T14:47:55.611Z,2.05
2023-07-20T14:50:22.964Z,1.88
2023-07-20T14:52:50.478Z,2.25
2023-07-20T14:55:17.844Z,1.77
2023-07-20T14:57:44.708Z,1.77
2023-07-20T15:00:11.849Z,1.85
2023-07-20T15:02:38.812Z,2.10
2023-07-20T15:05:07.862Z,1.70
2023-07-20T15:07:34.728Z,2.00
2023-07-20T15:10:01.739Z,1.92
2023-07-20T15:12:28.716Z,1.75
2023-07-20T15:15:08.572Z,1.88
2023-07-20T15:17:36.417Z,2.03
2023-07-20T15:20:05.897Z,2.40
2023-07-20T15:22:33.554Z,1.92
2023-07-20T15:25:00.715Z,1.80
2023-07-20T15:27:27.691Z,2.40
2023-07-20T15:29:54.393Z,2.20
2023-07-20T15:32:21.231Z,2.00
2023-07-20T15:34:48.188Z,1.95
2023-07-20T15:37:14.916Z,1.70
2023-07-20T15:39:42.605Z,1.88
2023-07-20T15:42:09.358Z,2.25
2023-07-20T15:44:36.150Z,2.35
2023-07-20T15:47:03.971Z,1.98
2023-07-20T15:49:33.322Z,2.45
2023-07-20T15:52:00.810Z,1.77
2023-07-20T15:54:27.447Z,2.05
2023-07-20T15:56:54.802Z,2.20
2023-07-20T15:59:21.541Z,2.00
2023-07-20T16:01:48.289Z,2.15
2023-07-20T16:04:18.144Z,2.05
2023-07-20T16:06:44.922Z,1.88
2023-07-20T16:09:11.594Z,1.92
2023-07-20T16:11:38.674Z,2.35
2023-07-20T16:14:06.863Z,2.30
2023-07-20T16:16:35.793Z,2.38
2023-07-20T16:19:02.684Z,2.00
2023-07-20T16:21:29.511Z,2.10
2023-07-20T16:23:56.276Z,2.05
2023-07-20T16:26:23.032Z,2.10
2023-07-20T16:28:49.768Z,2.22
2023-07-20T16:31:17.433Z,1.83
2023-07-20T16:33:46.824Z,2.38
2023-07-20T16:36:14.737Z,2.25
2023-07-20T16:38:44.358Z,2.15
2023-07-20T16:41:12.636Z,2.45
2023-07-20T16:51:10.245Z,2.17
2023-07-20T16:53:37.087Z,2.35
2023-07-20T16:56:03.901Z,2.35
2023-07-20T16:58:30.731Z,2.30
2023-07-20T17:01:05.880Z,2.47
2023-07-20T17:03:32.767Z,2.03
2023-07-20T17:06:00.490Z,2.47
2023-07-20T17:08:27.327Z,1.80
